sensor_id;sensor_type;location;lat;lon;timestamp;temperature;humidity
12123;DHT22;6125;59.628;17.852;2023-02-01T00:00:44;-4.20;99.90
12123;DHT22;6125;59.628;17.852;2023-02-01T00:03:11;-4.20;99.90
12123;DHT22;6125;59.628;17.852;2023-02-01T00:05:40;-4.20;99.90
12123;DHT22;6125;59.628;17.852;2023-02-01T00:08:08;-4.20;99.90
12123;DHT22;6125;59.628;17.852;2023-02-01T00:10:37;-4.20;99.90
12123;DHT22;6125;59.628;17.852;2023-02-01T00:13:04;-4.30;99.90
12123;DHT22;6125;59.628;17.852;2023-02-01T00:15:31;-4.20;99.90
12123;DHT22;6125;59.628;17.852;2023-02-01T00:17:59;-4.20;99.90
12123;DHT22;6125;59.628;17.852;2023-02-01T00:20:27;-4.20;99.90
12123;DHT22;6125;59.628;17.852;2023-02-01T00:22:54;-4.10;99.90
12123;DHT22;6125;59.628;17.852;2023-02-01T00:25:21;-4.00;99.90
12123;DHT22;6125;59.628;17.852;2023-02-01T00:27:50;-4.00;99.90
12123;DHT22;6125;59.628;17.852;2023-02-01T00:30:17;-3.90;99.90
12123;DHT22;6125;59.628;17.852;2023-02-01T00:32:45;-3.90;99.90
12123;DHT22;6125;59.628;17.852;2023-02-01T00:35:11;-3.90;99.90
12123;DHT22;6125;59.628;17.852;2023-02-01T00:37:41;-3.80;99.90
12123;DHT22;6125;59.628;17.852;2023-02-01T00:40:11;-3.80;99.90
12123;DHT22;6125;59.628;17.852;2023-02-01T00:42:46;-3.80;99.90
12123;DHT22;6125;59.628;17.852;2023-02-01T00:45:14;-3.70;99.90
12123;DHT22;6125;59.628;17.852;2023-02-01T00:47:41;-3.70;99.90
12123;DHT22;6125;59.628;17.852;2023-02-01T00:50:09;-3.60;99.90
12123;DHT22;6125;59.628;17.852;2023-02-01T00:52:38;-3.60;99.90
12123;DHT22;6125;59.628;17.852;2023-02-01T00:55:07;-3.60;99.90
12123;DHT22;6125;59.628;17.852;2023-02-01T00:57:35;-3.60;99.90
12123;DHT22;6125;59.628;17.852;2023-02-01T01:00:03;-3.60;99.90
12123;DHT22;6125;59.628;17.852;2023-02-01T01:02:34;-3.50;99.90
12123;DHT22;6125;59.628;17.852;2023-02-01T01:05:03;-3.50;99.90
12123;DHT22;6125;59.628;17.852;2023-02-01T01:07:31;-3.50;99.90
12123;DHT22;6125;59.628;17.852;2023-02-01T01:09:58;-3.50;99.90
12123;DHT22;6125;59.628;17.852;2023-02-01T01:12:25;-3.50;99.90
12123;DHT22;6125;59.628;17.852;2023-02-01T01:14:52;-3.40;99.90
12123;DHT22;6125;59.628;17.852;2023-02-01T01:17:19;-3.40;99.90
12123;DHT22;6125;59.628;17.852;2023-02-01T01:19:48;-3.40;99.90
12123;DHT22;6125;59.628;17.852;2023-02-01T01:22:15;-3.40;99.90
12123;DHT22;6125;59.628;17.852;2023-02-01T01:24:43;-3.40;99.90
12123;DHT22;6125;59.628;17.852;2023-02-01T01:27:10;-3.40;99.90
12123;DHT22;6125;59.628;17.852;2023-02-01T01:29:40;-3.30;99.90
12123;DHT22;6125;59.628;17.852;2023-02-01T01:32:07;-3.30;99.90
12123;DHT22;6125;59.628;17.852;2023-02-01T01:34:34;-3.30;99.90
12123;DHT22;6125;59.628;17.852;2023-02-01T01:37:05;-3.30;99.90
12123;DHT22;6125;59.628;17.852;2023-02-01T01:39:32;-3.30;99.90
12123;DHT22;6125;59.628;17.852;2023-02-01T01:41:59;-3.30;99.90
12123;DHT22;6125;59.628;17.852;2023-02-01T01:44:56;-3.30;99.90
12123;DHT22;6125;59.628;17.852;2023-02-01T01:47:25;-3.30;99.90
12123;DHT22;6125;59.628;17.852;2023-02-01T01:49:53;-3.30;99.90
12123;DHT22;6125;59.628;17.852;2023-02-01T01:52:22;-3.30;99.90
12123;DHT22;6125;59.628;17.852;2023-02-01T01:54:51;-3.30;99.90
12123;DHT22;6125;59.628;17.852;2023-02-01T01:57:23;-3.20;99.90
12123;DHT22;6125;59.628;17.852;2023-02-01T01:59:57;-3.20;99.90
12123;DHT22;6125;59.628;17.852;2023-02-01T02:02:27;-3.10;99.90
12123;DHT22;6125;59.628;17.852;2023-02-01T02:04:54;-3.10;99.90
12123;DHT22;6125;59.628;17.852;2023-02-01T02:07:26;-3.10;99.90
12123;DHT22;6125;59.628;17.852;2023-02-01T02:09:55;-3.10;99.90
12123;DHT22;6125;59.628;17.852;2023-02-01T02:12:22;-3.10;99.90
12123;DHT22;6125;59.628;17.852;2023-02-01T02:14:49;-3.10;99.90
12123;DHT22;6125;59.628;17.852;2023-02-01T02:17:28;-3.10;99.90
12123;DHT22;6125;59.628;17.852;2023-02-01T02:23:37;-3.00;99.90
12123;DHT22;6125;59.628;17.852;2023-02-01T02:32:26;-3.00;99.90
12123;DHT22;6125;59.628;17.852;2023-02-01T02:34:58;-2.90;99.90
12123;DHT22;6125;59.628;17.852;2023-02-01T02:37:34;-2.90;99.90
12123;DHT22;6125;59.628;17.852;2023-02-01T02:40:12;-2.90;99.90
12123;DHT22;6125;59.628;17.852;2023-02-01T02:42:52;-2.90;99.90
12123;DHT22;6125;59.628;17.852;2023-02-01T02:45:44;-2.90;99.90
12123;DHT22;6125;59.628;17.852;2023-02-01T02:48:37;-2.90;99.90
12123;DHT22;6125;59.628;17.852;2023-02-01T02:51:13;-2.90;99.90
12123;DHT22;6125;59.628;17.852;2023-02-01T02:54:02;-2.90;99.90
12123;DHT22;6125;59.628;17.852;2023-02-01T02:56:48;-2.90;99.90
12123;DHT22;6125;59.628;17.852;2023-02-01T02:59:35;-2.80;99.90
12123;DHT22;6125;59.628;17.852;2023-02-01T03:02:21;-2.70;99.90
12123;DHT22;6125;59.628;17.852;2023-02-01T03:05:06;-2.70;99.90
12123;DHT22;6125;59.628;17.852;2023-02-01T03:08:00;-2.60;99.90
12123;DHT22;6125;59.628;17.852;2023-02-01T03:10:35;-2.60;99.90
12123;DHT22;6125;59.628;17.852;2023-02-01T03:13:08;-2.60;99.90
12123;DHT22;6125;59.628;17.852;2023-02-01T03:15:39;-2.60;99.90
12123;DHT22;6125;59.628;17.852;2023-02-01T03:18:15;-2.60;99.90
12123;DHT22;6125;59.628;17.852;2023-02-01T03:20:44;-2.50;99.90
12123;DHT22;6125;59.628;17.852;2023-02-01T03:23:28;-2.70;99.90
12123;DHT22;6125;59.628;17.852;2023-02-01T03:25:58;-2.70;99.90
12123;DHT22;6125;59.628;17.852;2023-02-01T03:28:28;-2.60;99.90
12123;DHT22;6125;59.628;17.852;2023-02-01T03:30:57;-2.60;99.90
12123;DHT22;6125;59.628;17.852;2023-02-01T03:33:29;-2.60;99.90
12123;DHT22;6125;59.628;17.852;2023-02-01T03:36:15;-2.60;99.90
12123;DHT22;6125;59.628;17.852;2023-02-01T03:38:55;-2.50;99.90
12123;DHT22;6125;59.628;17.852;2023-02-01T03:41:31;-2.50;99.90
12123;DHT22;6125;59.628;17.852;2023-02-01T03:44:06;-2.50;99.90
12123;DHT22;6125;59.628;17.852;2023-02-01T03:46:37;-2.50;99.90
12123;DHT22;6125;59.628;17.852;2023-02-01T03:49:08;-2.40;99.90
12123;DHT22;6125;59.628;17.852;2023-02-01T03:51:38;-2.40;99.90
12123;DHT22;6125;59.628;17.852;2023-02-01T03:54:11;-2.30;99.90
12123;DHT22;6125;59.628;17.852;2023-02-01T03:56:43;-2.30;99.90
12123;DHT22;6125;59.628;17.852;2023-02-01T03:59:13;-2.40;99.90
12123;DHT22;6125;59.628;17.852;2023-02-01T04:01:41;-2.40;99.90
12123;DHT22;6125;59.628;17.852;2023-02-01T04:04:08;-2.40;99.90
12123;DHT22;6125;59.628;17.852;2023-02-01T04:06:36;-2.40;99.90
12123;DHT22;6125;59.628;17.852;2023-02-01T04:09:03;-2.40;99.90
12123;DHT22;6125;59.628;17.852;2023-02-01T04:11:34;-2.30;99.90
12123;DHT22;6125;59.628;17.852;2023-02-01T04:14:01;-2.30;99.90
12123;DHT22;6125;59.628;17.852;2023-02-01T04:16:30;-2.30;99.90
12123;DHT22;6125;59.628;17.852;2023-02-01T04:18:57;-2.20;99.90
12123;DHT22;6125;59.628;17.852;2023-02-01T04:21:25;-2.20;99.90
12123;DHT22;6125;59.628;17.852;2023-02-01T04:23:52;-2.10;99.90
12123;DHT22;6125;59.628;17.852;2023-02-01T04:26:20;-2.10;99.90
12123;DHT22;6125;59.628;17.852;2023-02-01T04:28:49;-2.10;99.90
12123;DHT22;6125;59.628;17.852;2023-02-01T04:31:17;-2.10;99.90
12123;DHT22;6125;59.628;17.852;2023-02-01T04:33:51;-2.10;99.90
12123;DHT22;6125;59.628;17.852;2023-02-01T04:36:20;-2.00;99.90
12123;DHT22;6125;59.628;17.852;2023-02-01T04:38:48;-2.00;99.90
12123;DHT22;6125;59.628;17.852;2023-02-01T04:41:18;-2.00;99.90
12123;DHT22;6125;59.628;17.852;2023-02-01T04:43:45;-2.00;99.90
12123;DHT22;6125;59.628;17.852;2023-02-01T04:46:15;-2.00;99.90
12123;DHT22;6125;59.628;17.852;2023-02-01T04:48:43;-1.90;99.90
12123;DHT22;6125;59.628;17.852;2023-02-01T04:51:10;-1.90;99.90
12123;DHT22;6125;59.628;17.852;2023-02-01T04:53:38;-1.90;99.90
12123;DHT22;6125;59.628;17.852;2023-02-01T04:56:06;-1.90;99.90
12123;DHT22;6125;59.628;17.852;2023-02-01T04:58:33;-1.90;99.90
12123;DHT22;6125;59.628;17.852;2023-02-01T05:01:02;-1.90;99.90
12123;DHT22;6125;59.628;17.852;2023-02-01T05:03:31;-1.90;99.90
12123;DHT22;6125;59.628;17.852;2023-02-01T05:05:58;-1.80;99.90
12123;DHT22;6125;59.628;17.852;2023-02-01T05:08:26;-1.80;99.90
12123;DHT22;6125;59.628;17.852;2023-02-01T05:10:55;-1.80;99.90
12123;DHT22;6125;59.628;17.852;2023-02-01T05:13:22;-1.80;99.90
12123;DHT22;6125;59.628;17.852;2023-02-01T05:16:07;-1.80;99.90
12123;DHT22;6125;59.628;17.852;2023-02-01T05:18:36;-1.70;99.90
12123;DHT22;6125;59.628;17.852;2023-02-01T05:21:04;-1.70;99.90
12123;DHT22;6125;59.628;17.852;2023-02-01T05:23:31;-1.70;99.90
12123;DHT22;6125;59.628;17.852;2023-02-01T05:26:20;-1.70;99.90
12123;DHT22;6125;59.628;17.852;2023-02-01T05:28:47;-1.70;99.90
12123;DHT22;6125;59.628;17.852;2023-02-01T05:31:16;-1.70;99.90
12123;DHT22;6125;59.628;17.852;2023-02-01T05:33:45;-1.70;99.90
12123;DHT22;6125;59.628;17.852;2023-02-01T05:36:12;-1.70;99.90
12123;DHT22;6125;59.628;17.852;2023-02-01T05:38:39;-1.70;99.90
12123;DHT22;6125;59.628;17.852;2023-02-01T05:41:06;-1.70;99.90
12123;DHT22;6125;59.628;17.852;2023-02-01T05:43:35;-1.70;99.90
12123;DHT22;6125;59.628;17.852;2023-02-01T05:46:02;-1.70;99.90
12123;DHT22;6125;59.628;17.852;2023-02-01T05:48:32;-1.70;99.90
12123;DHT22;6125;59.628;17.852;2023-02-01T05:51:03;-1.70;99.90
12123;DHT22;6125;59.628;17.852;2023-02-01T05:53:30;-1.70;99.90
12123;DHT22;6125;59.628;17.852;2023-02-01T05:56:00;-1.70;99.90
12123;DHT22;6125;59.628;17.852;2023-02-01T05:58:27;-1.70;99.90
12123;DHT22;6125;59.628;17.852;2023-02-01T06:00:54;-1.70;99.90
12123;DHT22;6125;59.628;17.852;2023-02-01T06:03:21;-1.70;99.90
12123;DHT22;6125;59.628;17.852;2023-02-01T06:05:48;-1.70;99.90
12123;DHT22;6125;59.628;17.852;2023-02-01T06:08:17;-1.80;99.90
12123;DHT22;6125;59.628;17.852;2023-02-01T06:10:44;-1.80;99.90
12123;DHT22;6125;59.628;17.852;2023-02-01T06:13:12;-1.80;99.90
12123;DHT22;6125;59.628;17.852;2023-02-01T06:15:39;-1.80;99.90
12123;DHT22;6125;59.628;17.852;2023-02-01T06:18:07;-1.80;99.90
12123;DHT22;6125;59.628;17.852;2023-02-01T06:20:34;-1.90;99.90
12123;DHT22;6125;59.628;17.852;2023-02-01T06:23:05;-1.80;99.90
12123;DHT22;6125;59.628;17.852;2023-02-01T06:25:33;-1.90;99.90
12123;DHT22;6125;59.628;17.852;2023-02-01T06:28:00;-1.80;99.90
12123;DHT22;6125;59.628;17.852;2023-02-01T06:30:32;-1.80;99.90
12123;DHT22;6125;59.628;17.852;2023-02-01T06:33:00;-1.80;99.90
12123;DHT22;6125;59.628;17.852;2023-02-01T06:35:28;-1.80;99.90
12123;DHT22;6125;59.628;17.852;2023-02-01T06:37:56;-1.70;99.90
12123;DHT22;6125;59.628;17.852;2023-02-01T06:40:23;-1.70;99.90
12123;DHT22;6125;59.628;17.852;2023-02-01T06:42:52;-1.70;99.90
12123;DHT22;6125;59.628;17.852;2023-02-01T06:45:19;-1.70;99.90
12123;DHT22;6125;59.628;17.852;2023-02-01T06:47:47;-1.70;99.90
12123;DHT22;6125;59.628;17.852;2023-02-01T06:50:22;-1.70;99.90
12123;DHT22;6125;59.628;17.852;2023-02-01T06:52:49;-1.80;99.90
12123;DHT22;6125;59.628;17.852;2023-02-01T06:55:16;-1.90;99.90
12123;DHT22;6125;59.628;17.852;2023-02-01T06:57:43;-1.90;99.90
12123;DHT22;6125;59.628;17.852;2023-02-01T07:00:14;-1.90;99.90
12123;DHT22;6125;59.628;17.852;2023-02-01T07:02:41;-1.90;99.90
12123;DHT22;6125;59.628;17.852;2023-02-01T07:05:09;-1.90;99.90
12123;DHT22;6125;59.628;17.852;2023-02-01T07:07:36;-1.80;99.90
12123;DHT22;6125;59.628;17.852;2023-02-01T07:10:03;-1.80;99.90
12123;DHT22;6125;59.628;17.852;2023-02-01T07:12:33;-1.80;99.90
12123;DHT22;6125;59.628;17.852;2023-02-01T07:15:00;-1.80;99.90
12123;DHT22;6125;59.628;17.852;2023-02-01T07:17:30;-1.80;99.90
12123;DHT22;6125;59.628;17.852;2023-02-01T07:19:57;-1.80;99.90
12123;DHT22;6125;59.628;17.852;2023-02-01T07:22:28;-1.80;99.90
12123;DHT22;6125;59.628;17.852;2023-02-01T07:24:55;-1.70;99.90
12123;DHT22;6125;59.628;17.852;2023-02-01T07:27:22;-1.70;99.90
12123;DHT22;6125;59.628;17.852;2023-02-01T07:29:51;-1.80;99.90
12123;DHT22;6125;59.628;17.852;2023-02-01T07:32:18;-1.60;99.90
12123;DHT22;6125;59.628;17.852;2023-02-01T07:34:46;-1.60;99.90
12123;DHT22;6125;59.628;17.852;2023-02-01T07:37:13;-1.60;99.90
12123;DHT22;6125;59.628;17.852;2023-02-01T07:39:40;-1.50;99.90
12123;DHT22;6125;59.628;17.852;2023-02-01T07:42:08;-1.40;99.90
12123;DHT22;6125;59.628;17.852;2023-02-01T07:44:36;-1.40;99.90
12123;DHT22;6125;59.628;17.852;2023-02-01T07:47:03;-1.40;99.90
12123;DHT22;6125;59.628;17.852;2023-02-01T07:49:32;-1.40;99.90
12123;DHT22;6125;59.628;17.852;2023-02-01T07:52:03;-1.30;99.90
12123;DHT22;6125;59.628;17.852;2023-02-01T07:54:30;-1.30;99.90
12123;DHT22;6125;59.628;17.852;2023-02-01T07:57:00;-1.30;99.90
12123;DHT22;6125;59.628;17.852;2023-02-01T07:59:27;-1.30;99.90
12123;DHT22;6125;59.628;17.852;2023-02-01T08:01:54;-1.30;99.90
12123;DHT22;6125;59.628;17.852;2023-02-01T08:04:20;-1.20;99.90
12123;DHT22;6125;59.628;17.852;2023-02-01T08:06:47;-1.20;99.90
12123;DHT22;6125;59.628;17.852;2023-02-01T08:09:16;-1.20;99.90
12123;DHT22;6125;59.628;17.852;2023-02-01T08:11:43;-1.10;99.90
12123;DHT22;6125;59.628;17.852;2023-02-01T08:14:10;-1.10;99.90
12123;DHT22;6125;59.628;17.852;2023-02-01T08:16:37;-1.00;99.90
12123;DHT22;6125;59.628;17.852;2023-02-01T08:19:04;-1.00;99.90
12123;DHT22;6125;59.628;17.852;2023-02-01T08:21:32;-1.00;99.90
12123;DHT22;6125;59.628;17.852;2023-02-01T08:24:04;-0.90;99.90
12123;DHT22;6125;59.628;17.852;2023-02-01T08:26:33;-0.90;99.90
12123;DHT22;6125;59.628;17.852;2023-02-01T08:29:01;-1.00;99.90
12123;DHT22;6125;59.628;17.852;2023-02-01T08:31:30;-1.00;99.90
12123;DHT22;6125;59.628;17.852;2023-02-01T08:33:59;-1.00;99.90
12123;DHT22;6125;59.628;17.852;2023-02-01T08:36:36;-1.10;99.90
12123;DHT22;6125;59.628;17.852;2023-02-01T08:39:03;-1.10;99.90
12123;DHT22;6125;59.628;17.852;2023-02-01T08:41:37;-1.10;99.90
12123;DHT22;6125;59.628;17.852;2023-02-01T08:44:04;-1.10;99.90
12123;DHT22;6125;59.628;17.852;2023-02-01T08:46:31;-1.10;99.90
12123;DHT22;6125;59.628;17.852;2023-02-01T08:49:00;-1.10;99.90
12123;DHT22;6125;59.628;17.852;2023-02-01T08:51:27;-1.10;99.90
12123;DHT22;6125;59.628;17.852;2023-02-01T08:53:56;-1.00;99.90
12123;DHT22;6125;59.628;17.852;2023-02-01T08:56:23;-1.00;99.90
12123;DHT22;6125;59.628;17.852;2023-02-01T08:58:51;-0.90;99.90
12123;DHT22;6125;59.628;17.852;2023-02-01T09:01:19;-0.90;99.90
12123;DHT22;6125;59.628;17.852;2023-02-01T09:03:46;-0.80;99.90
12123;DHT22;6125;59.628;17.852;2023-02-01T09:06:14;-0.70;99.90
12123;DHT22;6125;59.628;17.852;2023-02-01T09:08:44;-0.70;99.90
12123;DHT22;6125;59.628;17.852;2023-02-01T09:11:13;-0.60;99.90
12123;DHT22;6125;59.628;17.852;2023-02-01T09:13:41;-0.60;99.90
12123;DHT22;6125;59.628;17.852;2023-02-01T09:16:10;-0.70;99.90
12123;DHT22;6125;59.628;17.852;2023-02-01T09:18:37;-0.70;99.90
12123;DHT22;6125;59.628;17.852;2023-02-01T09:21:05;-0.70;99.90
12123;DHT22;6125;59.628;17.852;2023-02-01T09:23:32;-0.80;99.90
12123;DHT22;6125;59.628;17.852;2023-02-01T09:26:00;-0.90;99.90
12123;DHT22;6125;59.628;17.852;2023-02-01T09:28:28;-0.90;99.90
12123;DHT22;6125;59.628;17.852;2023-02-01T09:30:56;-0.90;99.90
12123;DHT22;6125;59.628;17.852;2023-02-01T09:33:26;-0.90;99.90
12123;DHT22;6125;59.628;17.852;2023-02-01T09:35:56;-1.00;99.90
12123;DHT22;6125;59.628;17.852;2023-02-01T09:38:23;-1.00;99.90
12123;DHT22;6125;59.628;17.852;2023-02-01T09:40:53;-1.00;99.90
12123;DHT22;6125;59.628;17.852;2023-02-01T09:43:29;-0.90;99.90
12123;DHT22;6125;59.628;17.852;2023-02-01T09:46:06;-0.90;99.90
12123;DHT22;6125;59.628;17.852;2023-02-01T09:48:41;-0.90;99.90
12123;DHT22;6125;59.628;17.852;2023-02-01T09:51:14;-0.80;99.90
12123;DHT22;6125;59.628;17.852;2023-02-01T09:53:46;-0.80;99.90
12123;DHT22;6125;59.628;17.852;2023-02-01T09:56:21;-0.70;99.90
12123;DHT22;6125;59.628;17.852;2023-02-01T09:58:54;-0.50;99.90
12123;DHT22;6125;59.628;17.852;2023-02-01T10:01:24;-0.50;99.90
12123;DHT22;6125;59.628;17.852;2023-02-01T10:04:03;-0.50;99.90
12123;DHT22;6125;59.628;17.852;2023-02-01T10:06:47;-0.50;99.90
12123;DHT22;6125;59.628;17.852;2023-02-01T10:09:42;-0.40;99.90
12123;DHT22;6125;59.628;17.852;2023-02-01T10:12:45;-0.50;99.90
12123;DHT22;6125;59.628;17.852;2023-02-01T10:15:25;-0.40;99.90
12123;DHT22;6125;59.628;17.852;2023-02-01T10:18:17;-0.40;99.90
12123;DHT22;6125;59.628;17.852;2023-02-01T10:20:55;-0.40;99.90
12123;DHT22;6125;59.628;17.852;2023-02-01T10:23:41;-0.30;99.90
12123;DHT22;6125;59.628;17.852;2023-02-01T10:26:20;-0.20;99.90
12123;DHT22;6125;59.628;17.852;2023-02-01T10:28:50;-0.10;99.90
12123;DHT22;6125;59.628;17.852;2023-02-01T10:31:18;-0.20;99.90
12123;DHT22;6125;59.628;17.852;2023-02-01T10:33:47;-0.20;99.90
12123;DHT22;6125;59.628;17.852;2023-02-01T10:36:23;-0.10;99.90
12123;DHT22;6125;59.628;17.852;2023-02-01T10:38:52;-0.20;99.90
12123;DHT22;6125;59.628;17.852;2023-02-01T10:41:21;-0.20;99.90
12123;DHT22;6125;59.628;17.852;2023-02-01T10:43:53;-0.10;99.90
12123;DHT22;6125;59.628;17.852;2023-02-01T10:46:22;-0.10;99.90
12123;DHT22;6125;59.628;17.852;2023-02-01T10:48:51;-0.10;99.90
12123;DHT22;6125;59.628;17.852;2023-02-01T10:51:26;0.00;99.90
12123;DHT22;6125;59.628;17.852;2023-02-01T10:53:58;0.10;99.90
12123;DHT22;6125;59.628;17.852;2023-02-01T10:56:28;0.10;99.90
12123;DHT22;6125;59.628;17.852;2023-02-01T10:59:01;-0.10;99.90
12123;DHT22;6125;59.628;17.852;2023-02-01T11:01:31;-0.20;99.90
12123;DHT22;6125;59.628;17.852;2023-02-01T11:04:04;-0.20;99.90
12123;DHT22;6125;59.628;17.852;2023-02-01T11:06:35;-0.10;99.90
12123;DHT22;6125;59.628;17.852;2023-02-01T11:09:11;-0.20;99.90
12123;DHT22;6125;59.628;17.852;2023-02-01T11:11:54;-0.30;99.90
12123;DHT22;6125;59.628;17.852;2023-02-01T11:14:27;-0.50;99.90
12123;DHT22;6125;59.628;17.852;2023-02-01T11:17:00;-0.60;99.90
12123;DHT22;6125;59.628;17.852;2023-02-01T11:19:28;-0.60;99.90
12123;DHT22;6125;59.628;17.852;2023-02-01T11:21:59;-0.70;99.90
12123;DHT22;6125;59.628;17.852;2023-02-01T11:24:31;-0.70;99.90
12123;DHT22;6125;59.628;17.852;2023-02-01T11:27:02;-0.80;99.90
12123;DHT22;6125;59.628;17.852;2023-02-01T11:29:35;-0.80;99.90
12123;DHT22;6125;59.628;17.852;2023-02-01T11:32:05;-0.80;99.90
12123;DHT22;6125;59.628;17.852;2023-02-01T11:34:38;-0.80;99.90
12123;DHT22;6125;59.628;17.852;2023-02-01T11:37:16;-0.90;99.90
12123;DHT22;6125;59.628;17.852;2023-02-01T11:39:53;-0.90;99.90
12123;DHT22;6125;59.628;17.852;2023-02-01T11:42:21;-1.00;99.90
12123;DHT22;6125;59.628;17.852;2023-02-01T11:44:52;-1.00;99.90
12123;DHT22;6125;59.628;17.852;2023-02-01T11:47:39;-1.10;99.90
12123;DHT22;6125;59.628;17.852;2023-02-01T11:50:15;-1.10;99.90
12123;DHT22;6125;59.628;17.852;2023-02-01T11:52:54;-1.20;99.90
12123;DHT22;6125;59.628;17.852;2023-02-01T11:55:43;-1.20;99.90
12123;DHT22;6125;59.628;17.852;2023-02-01T11:58:33;-1.20;99.90
12123;DHT22;6125;59.628;17.852;2023-02-01T12:01:15;-1.20;99.90
12123;DHT22;6125;59.628;17.852;2023-02-01T12:06:48;-1.10;99.90
12123;DHT22;6125;59.628;17.852;2023-02-01T12:09:40;-1.00;99.90
12123;DHT22;6125;59.628;17.852;2023-02-01T12:12:17;-0.80;99.90
12123;DHT22;6125;59.628;17.852;2023-02-01T12:15:05;-0.60;99.90
12123;DHT22;6125;59.628;17.852;2023-02-01T12:17:59;-0.30;99.90
12123;DHT22;6125;59.628;17.852;2023-02-01T12:23:32;0.10;99.90
12123;DHT22;6125;59.628;17.852;2023-02-01T12:32:22;0.10;99.90
12123;DHT22;6125;59.628;17.852;2023-02-01T12:35:09;0.00;99.90
12123;DHT22;6125;59.628;17.852;2023-02-01T12:37:51;-0.10;99.90
12123;DHT22;6125;59.628;17.852;2023-02-01T12:40:36;-0.20;99.90
12123;DHT22;6125;59.628;17.852;2023-02-01T12:43:11;-0.20;99.90
12123;DHT22;6125;59.628;17.852;2023-02-01T12:45:45;-0.10;99.90
12123;DHT22;6125;59.628;17.852;2023-02-01T12:48:25;-0.10;99.90
12123;DHT22;6125;59.628;17.852;2023-02-01T12:50:55;-0.10;99.90
12123;DHT22;6125;59.628;17.852;2023-02-01T12:53:36;-0.10;99.90
12123;DHT22;6125;59.628;17.852;2023-02-01T12:56:09;-0.10;99.90
12123;DHT22;6125;59.628;17.852;2023-02-01T12:58:43;-0.10;99.90
12123;DHT22;6125;59.628;17.852;2023-02-01T13:01:15;-0.10;99.90
12123;DHT22;6125;59.628;17.852;2023-02-01T13:03:52;-0.10;99.90
12123;DHT22;6125;59.628;17.852;2023-02-01T13:06:25;-0.10;99.90
12123;DHT22;6125;59.628;17.852;2023-02-01T13:08:58;0.00;99.90
12123;DHT22;6125;59.628;17.852;2023-02-01T13:11:29;-0.10;99.90
12123;DHT22;6125;59.628;17.852;2023-02-01T13:14:03;-0.10;99.90
12123;DHT22;6125;59.628;17.852;2023-02-01T13:16:32;-0.20;99.90
12123;DHT22;6125;59.628;17.852;2023-02-01T13:19:06;0.00;99.90
12123;DHT22;6125;59.628;17.852;2023-02-01T13:21:40;0.10;99.90
12123;DHT22;6125;59.628;17.852;2023-02-01T13:24:26;0.10;99.90
12123;DHT22;6125;59.628;17.852;2023-02-01T13:26:55;0.10;99.90
12123;DHT22;6125;59.628;17.852;2023-02-01T13:29:27;0.10;99.90
12123;DHT22;6125;59.628;17.852;2023-02-01T13:32:10;0.20;99.90
12123;DHT22;6125;59.628;17.852;2023-02-01T13:35:18;0.30;99.90
12123;DHT22;6125;59.628;17.852;2023-02-01T13:40:43;0.50;99.90
12123;DHT22;6125;59.628;17.852;2023-02-01T13:43:14;0.50;99.90
12123;DHT22;6125;59.628;17.852;2023-02-01T13:45:46;0.60;99.90
12123;DHT22;6125;59.628;17.852;2023-02-01T13:48:24;0.60;99.90
12123;DHT22;6125;59.628;17.852;2023-02-01T13:50:54;0.50;99.90
12123;DHT22;6125;59.628;17.852;2023-02-01T13:53:28;0.40;99.90
12123;DHT22;6125;59.628;17.852;2023-02-01T13:56:00;0.20;99.90
12123;DHT22;6125;59.628;17.852;2023-02-01T13:58:33;0.10;99.90
12123;DHT22;6125;59.628;17.852;2023-02-01T14:01:33;0.00;99.90
12123;DHT22;6125;59.628;17.852;2023-02-01T14:04:02;0.00;99.90
12123;DHT22;6125;59.628;17.852;2023-02-01T14:06:44;-0.10;99.90
12123;DHT22;6125;59.628;17.852;2023-02-01T14:09:17;-0.10;99.90
12123;DHT22;6125;59.628;17.852;2023-02-01T14:11:47;-0.10;99.90
12123;DHT22;6125;59.628;17.852;2023-02-01T14:14:47;0.00;99.90
12123;DHT22;6125;59.628;17.852;2023-02-01T14:17:38;0.00;99.90
12123;DHT22;6125;59.628;17.852;2023-02-01T14:23:26;0.00;99.90
12123;DHT22;6125;59.628;17.852;2023-02-01T14:26:21;0.00;99.90
12123;DHT22;6125;59.628;17.852;2023-02-01T14:28:59;0.00;99.90
12123;DHT22;6125;59.628;17.852;2023-02-01T14:31:37;0.10;99.90
12123;DHT22;6125;59.628;17.852;2023-02-01T14:34:17;0.00;99.90
12123;DHT22;6125;59.628;17.852;2023-02-01T14:36:51;0.00;99.90
12123;DHT22;6125;59.628;17.852;2023-02-01T14:39:30;0.10;99.90
12123;DHT22;6125;59.628;17.852;2023-02-01T14:42:03;0.10;99.90
12123;DHT22;6125;59.628;17.852;2023-02-01T14:44:34;0.10;99.90
12123;DHT22;6125;59.628;17.852;2023-02-01T14:47:29;0.10;99.90
12123;DHT22;6125;59.628;17.852;2023-02-01T14:52:58;0.00;99.90
12123;DHT22;6125;59.628;17.852;2023-02-01T14:55:32;0.00;99.90
12123;DHT22;6125;59.628;17.852;2023-02-01T14:58:02;-0.10;99.90
12123;DHT22;6125;59.628;17.852;2023-02-01T15:00:32;-0.10;99.90
12123;DHT22;6125;59.628;17.852;2023-02-01T15:03:21;-0.10;99.90
12123;DHT22;6125;59.628;17.852;2023-02-01T15:05:57;-0.10;99.90
12123;DHT22;6125;59.628;17.852;2023-02-01T15:08:27;-0.20;99.90
12123;DHT22;6125;59.628;17.852;2023-02-01T15:10:56;-0.20;99.90
12123;DHT22;6125;59.628;17.852;2023-02-01T15:13:26;-0.20;99.90
12123;DHT22;6125;59.628;17.852;2023-02-01T15:16:02;-0.20;99.90
12123;DHT22;6125;59.628;17.852;2023-02-01T15:18:29;-0.20;99.90
12123;DHT22;6125;59.628;17.852;2023-02-01T15:20:59;-0.20;99.90
12123;DHT22;6125;59.628;17.852;2023-02-01T15:23:27;-0.20;99.90
12123;DHT22;6125;59.628;17.852;2023-02-01T15:25:54;-0.30;99.90
12123;DHT22;6125;59.628;17.852;2023-02-01T15:28:22;-0.30;99.90
12123;DHT22;6125;59.628;17.852;2023-02-01T15:30:55;-0.30;99.90
12123;DHT22;6125;59.628;17.852;2023-02-01T15:33:23;-0.20;99.90
12123;DHT22;6125;59.628;17.852;2023-02-01T15:35:52;-0.20;99.90
12123;DHT22;6125;59.628;17.852;2023-02-01T15:38:39;-0.20;99.90
12123;DHT22;6125;59.628;17.852;2023-02-01T15:41:09;-0.20;99.90
12123;DHT22;6125;59.628;17.852;2023-02-01T15:43:41;-0.20;99.90
12123;DHT22;6125;59.628;17.852;2023-02-01T15:46:12;-0.30;99.90
12123;DHT22;6125;59.628;17.852;2023-02-01T15:48:45;-0.30;99.90
12123;DHT22;6125;59.628;17.852;2023-02-01T15:51:17;-0.30;99.90
12123;DHT22;6125;59.628;17.852;2023-02-01T15:53:48;-0.30;99.90
12123;DHT22;6125;59.628;17.852;2023-02-01T15:56:24;-0.30;99.90
12123;DHT22;6125;59.628;17.852;2023-02-01T15:58:55;-0.30;99.90
12123;DHT22;6125;59.628;17.852;2023-02-01T16:01:25;-0.30;99.90
12123;DHT22;6125;59.628;17.852;2023-02-01T16:04:04;-0.30;99.90
12123;DHT22;6125;59.628;17.852;2023-02-01T16:06:45;-0.40;99.90
12123;DHT22;6125;59.628;17.852;2023-02-01T16:09:16;-0.40;99.90
12123;DHT22;6125;59.628;17.852;2023-02-01T16:11:54;-0.40;99.90
12123;DHT22;6125;59.628;17.852;2023-02-01T16:14:21;-0.40;99.90
12123;DHT22;6125;59.628;17.852;2023-02-01T16:16:49;-0.40;99.90
12123;DHT22;6125;59.628;17.852;2023-02-01T16:19:16;-0.50;99.90
12123;DHT22;6125;59.628;17.852;2023-02-01T16:21:43;-0.50;99.90
12123;DHT22;6125;59.628;17.852;2023-02-01T16:24:11;-0.50;99.90
12123;DHT22;6125;59.628;17.852;2023-02-01T16:26:39;-0.50;99.90
12123;DHT22;6125;59.628;17.852;2023-02-01T16:29:06;-0.50;99.90
12123;DHT22;6125;59.628;17.852;2023-02-01T16:31:36;-0.50;99.90
12123;DHT22;6125;59.628;17.852;2023-02-01T16:34:04;-0.60;99.90